Terminal Aerodrome Forecast
Issued by NWS Wilmington, NC

Home | Current Version | Previous Version | Text Only | Print | Product List | Glossary On
Versions: 1 2 3 4 5 6 7 8 9 10 11 12 13 14 15 16
000
FTUS42 KILM 272300
TAFILM
TAF
KILM 272320Z 2800/2824 21012KT P6SM SCT200
     FM280400 22010KT P6SM SCT150
     FM281400 25012KT P6SM FEW040 SCT150
     FM281900 25012G18KT P6SM VCTS SCT040CB BKN200
      TEMPO 2820/2824 26020G30KT 1SM +TSRA BKN030CB=

USA.gov is the U.S. government's official web portal to all federal, state and local government web resources and services.